Ust'- Umal'Ta, Russia
Current Conditions -  °F | °C
As of 1:30 AM on Wednesday 22 Oct 2014 (Local Time) from UHHH Reporting Station
Clear Clear  
Wind Chill: 13°   Ceiling: Unl
Heat Index: 25°   Visibility: 6mi
Dew Point:   Wind: 13mph
Humidity: 43%   Direction: 260°W
Pressure: 30.09"   Gusts: NA
Location:  51.63°N, 133.32°E
Report Text: UHHH 211530Z 26006MPS CAVOK M04/M15 Q1019 NOSIG RMK QFE758/101023090060
Loading
Personal Weather Stations






























Interactive Weather Map
Tropical Storm Tracking
New forecast layout! Learn more

10-Day Weather Forecast

Advertisements
Track Severe Weather on mobile